Vue régionale

METAR et TAF

Dimanche 27 septembre 2020 à 09h05

Visibilités horizontales observées à différents aéroports. Les observations (METAR) et prévisions aéronautiques (TAF) complètes sont disponibles en cliquant sur l’icône correspondante.

  • Luxemburg (ELLX)

    Taf: TAF ELLX 270500Z 2706/2812 21010KT 4000 RA SCT003 BKN005 BECMG 2706/2709 11007KT 6000 -RA SCT005 BKN007 TEMPO 2711/2721 BKN015 BECMG 2806/2809 20005KT PROB40 TEMPO 2809/2812 4000 RA SCT003 BKN005=

    Metar: METAR ELLX 270650Z 16011KT 120V200 2500 DZ SCT003 BKN004 09/08 Q0995 NOSIG=

  • Spangdahlem (ETAD)

    Taf: TAF AMD ETAD 261800Z 2618/2720 25009KT 8000 -SHRA BKN018 BKN020 QNH2951INS TEMPO 2618/2620 5000 BR BKN009 BECMG 2621/2622 26010G15KT 5000 -RA BR BKN007 BKN020 OVC035 620409 QNH2947INS BECMG 2705/2706 18012KT 5000 BR BKN005 OVC015 620504 QNH2933INS BECMG 2708/2709 16010G18KT 9999 NSW SCT009 BKN018 QNH2937INS BECMG 2715/2716 16009KT 9999 SCT015 BKN025 BKN030 QNH2950INS TX13/2714Z TN07/2704Z LAST NO AMDS AFT 2618=

    Metar: METAR ETAD 270656Z AUTO 00000KT 9999 OVC006 09/09 A2943 RMK AO2 CIG 005 RWY05 SLP960 T00880088 $=

  • Metz/Nancy (LFJL)

    Taf: TAF LFJL 270500Z 2706/2806 20012KT 9999 SCT007 BKN015 TEMPO 2706/2709 4000 RA BKN007 BECMG 2711/2714 BKN030 BECMG 2719/2722 14004KT PROB30 TEMPO 2802/2806 3000 BR BKN003=

    Metar: METAR LFJL 270630Z AUTO 17015KT 4400 -RA BR BKN008/// BKN013/// OVC019/// ///TCU 09/08 Q0996 TEMPO RA BKN007=

  • Saarbrücken/Intl (EDDR)

    Taf: TAF EDDR 270500Z 2706/2806 22012KT 9999 BKN020 TEMPO 2706/2712 4000 RA BKN008 PROB30 TEMPO 2706/2708 20015G25KT BKN004 BECMG 2714/2717 13004KT TEMPO 2802/2806 BKN008=

    Metar: METAR EDDR 270650Z 19013KT 150V220 9999 -RA FEW002 BKN006 08/07 Q0997 NOSIG=

  • Hahn (EDFH)

    Taf: TAF EDFH 270500Z 2706/2806 22012KT 9999 BKN010 TEMPO 2706/2710 4000 -RA BKN004 BECMG 2707/2710 15010KT BECMG 2712/2716 BKN015 BECMG 2717/2720 15005KT TEMPO 2802/2806 BKN004=

    Metar: METAR EDFH 270650Z 14007KT 9999 FEW030 07/07 Q0997=

  • Ramstein (ETAR)

    Taf: TAF ETAR 270200Z 2702/2808 25010G15KT 9000 -SHRA BKN025 BKN035 610406 QNH2944INS TEMPO 2702/2708 21010G20KT 8000 -SHRA BKN015 BECMG 2708/2709 16010G15KT 9000 -SHRA BKN015 BKN025 610505 QNH2949INS BECMG 2715/2716 18010KT 9000 -DZ BKN030 QNH2963INS BECMG 2717/2718 VRB06KT 9999 NSW BKN030 QNH2970INS BECMG 2801/2802 VRB06KT 9999 SCT030 QNH2974INS TX13/2715Z TN07/2801Z=

    Metar: METAR ETAR 270656Z 21007G17KT 9999 OVC016 09/08 A2948 RMK AO2A CIG 015 RWY08 SLP989 T00920083 FZRANO $=

  • Nancy/Ochey (LFSO)

    Taf: TAF LFSO 270200Z NIL=

    Metar: METAR LFSO 270630Z AUTO 20016KT 4700 -RA BR BKN013/// OVC021/// ///CB 08/08 Q0997=

  • Liège Bierset (EBLG)

    Taf: TAF EBLG 270521Z 2706/2812 36013KT 8000 SCT012 BKN018 TEMPO 2706/2712 BKN006 TEMPO 2720/2802 VRB03KT PROB40 TEMPO 2802/2812 3000 RA RADZ SCT003 BKN006 BECMG 2809/2811 22007KT=

    Metar: METAR EBLG 270650Z 03007KT 9999 SCT006 BKN009 12/11 Q0996 BECMG BKN012=

  • Saint-Dizier (LFSI)

    Taf: TAF LFSI 270200Z 2703/2803 26010KT 8000 RA BKN005 BECMG 2711/2713 NSW BKN015 BECMG 2718/2720 BKN006 TEMPO 2720/2803 OVC003=

    Metar: METAR LFSI 270630Z AUTO 25017KT 4100 RA BR BKN009/// BKN013/// OVC018/// ///TCU 10/09 Q0997=

  • Maastricht/Zuid Limburg (EHBK)

    Taf: TAF EHBK 270526Z 2706/2812 05012KT 9999 BKN005 BECMG 2706/2709 08010KT BKN012 BECMG 2709/2712 BKN020 BECMG 2719/2722 21004KT TEMPO 2804/2810 6000 RADZ BECMG 2810/2812 6000 RADZ BKN008=

    Metar: METAR EHBK 270655Z AUTO 04011KT 010V070 8000 FEW005 BKN006 BKN007 12/11 Q0996 BECMG SCT018=

  • Köln/Köln-Bonn (EDDK)

    Taf: TAF EDDK 270500Z 2706/2812 13009KT 9999 BKN008 BECMG 2706/2709 SCT015 BKN030 BECMG 2714/2717 12004KT TEMPO 2722/2812 RA PROB30 TEMPO 2803/2812 4000 -RA BKN012=

    Metar: METAR EDDK 270650Z 08008KT 060V120 9999 FEW010 10/08 Q0998 TEMPO BKN010=

  • Charleroi (EBCI)

    Taf: TAF EBCI 270521Z 2706/2812 36013KT 8000 SCT012 BKN018 TEMPO 2706/2712 BKN006 TEMPO 2720/2802 VRB03KT PROB40 TEMPO 2802/2812 3000 RA RADZ SCT003 BKN006 BECMG 2809/2811 31007KT=

    Metar: METAR EBCI 270650Z 01010KT 9999 FEW004 BKN008 15/13 Q0997 RESHRA TEMPO 3000 SHRA BKN004=

  • Wiesbaden (ETOU)

    Taf: TAF ETOU 270400Z 2704/2810 17010G15KT 9000 -SHRA BKN012 OVC020 610452 QNH2946INS TEMPO 2704/2707 6000 SHRA BKN007 OVC015 BECMG 2708/2709 18010KT 9999 NSW BKN015 OVC020 QNH2955INS BECMG 2711/2712 18008KT 9999 BKN020 OVC040 QNH2960INS BECMG 2715/2716 VRB06KT 9999 OVC030 QNH2967INS BECMG 2801/2802 VRB06KT 9999 SCT030 OVC100 QNH2974INS TX13/2715Z TN07/2723Z=

    Metar: METAR ETOU 270656Z AUTO 19010KT 9999 OVC008 09/09 A2950 RMK AO2 RAB17E30 SLP994 P0000 T00910089 $=

  • Karlsruhe/Baden-Baden (EDSB)

    Taf: TAF EDSB 270500Z 2706/2806 20012KT 9999 BKN030 TEMPO 2706/2708 4000 RA BKN012 PROB30 TEMPO 2706/2712 20015G25KT BECMG 2712/2715 20005KT BECMG 2718/2720 VRB03KT TEMPO 2802/2806 2000 BCFG BKN004=

    Metar: METAR EDSB 270650Z 20016KT 9999 OVC040 09/07 Q1000=

  • Chalons/Vatry (LFOK)

    Taf: TAF LFOK 270500Z 2706/2806 29020G30KT 9999 OVC015 TEMPO 2706/2713 3000 RA BKN005 BKN025TCU BECMG 2713/2715 35012KT BKN025 BECMG 2716/2719 VRB03KT TEMPO 2721/2806 3000 BR BKN005=

    Metar: METAR LFOK 270630Z AUTO 28017KT 6000 -RA BKN009/// BKN013/// BKN019/// ///TCU 10/09 Q0998 TEMPO 3000 RA BECMG 29020G30KT=

  • Frankfurt/Main (EDDF)

    Taf: TAF EDDF 270500Z 2706/2812 18008KT 9999 BKN025 TEMPO 2706/2709 BKN007 BECMG 2715/2718 16003KT BECMG 2806/2809 22006KT=

    Metar: METAR EDDF 270650Z 17010KT 9999 FEW004 BKN008 BKN022 09/08 Q0999 NOSIG=

  • Brüssel (EBBR)

    Taf: TAF EBBR 270521Z 2706/2812 36013KT 9999 SCT012 BKN018 TEMPO 2706/2712 BKN007 TEMPO 2720/2802 VRB03KT PROB40 TEMPO 2802/2812 3200 RA RADZ SCT004 BKN008 BECMG 2809/2811 32008KT=

    Metar: METAR EBBR 270650Z 36016G26KT 9999 SCT015 BKN025 16/14 Q0997 BECMG FM0800 02011KT=

  • Düsseldorf (EDDL)

    Taf: TAF EDDL 270500Z 2706/2812 11009KT 9999 BKN012 BECMG 2706/2708 SCT015 BKN030 BECMG 2714/2717 12004KT TEMPO 2722/2812 RA BECMG 2801/2804 19007KT PROB30 TEMPO 2803/2812 4000 -RA BKN012=

    Metar: METAR EDDL 270650Z 09008KT 9999 SCT011 BKN016 11/09 Q0998 NOSIG=

  • Luxeuil (LFSX)

    Taf: TAF LFSX 270200Z NIL=

    Metar: METAR LFSX 270630Z AUTO 21012KT 9999 -RA OVC009/// ///TCU 07/07 Q1001=

  • Eindhoven (EHEH)

    Taf: TAF EHEH 270500Z NIL=

    Metar: METAR EHEH 270655Z AUTO 05012KT 020V080 9999 FEW010 SCT016 OVC022 14/12 Q0998 WHT TEMPO 4000 DZRA SCT005 BKN008=

  • Niederrhein (EDLV)

    Taf: TAF EDLV 270500Z 2706/2806 07006KT 9999 BKN007 BECMG 2706/2708 BKN020 BECMG 2714/2717 VRB03KT TEMPO 2723/2806 4000 RA BKN010 PROB30 TEMPO 2800/2806 OVC004=

    Metar: METAR EDLV 270650Z 06004KT 340V140 9999 BKN011 11/10 Q0998=

  • Dortmund/Wickede (EDLW)

    Taf: TAF EDLW 270500Z 2706/2806 11006KT 9999 BKN025 BECMG 2714/2717 VRB03KT TEMPO 2721/2806 RA PROB30 TEMPO 2801/2806 4000 -DZ BKN010=

    Metar: METAR EDLW 270650Z 12006KT 9999 SCT015 09/07 Q0999=

  • Stuttgart/Echterdingen (EDDS)

    Taf: TAF EDDS 270500Z 2706/2806 19005KT 9999 BKN030 PROB30 TEMPO 2706/2709 BKN012 BECMG 2718/2720 VRB03KT=

    Metar: METAR EDDS 270650Z 19006KT 130V270 9999 FEW033 08/04 Q1001 NOSIG=

  • Basel-Mühlhausen (LFSB)

    Taf: TAF LFSB 270500Z 2706/2806 23008KT 9999 BKN040 PROB30 TEMPO 2803/2806 4000 BR=

    Metar: METAR LFSB 270630Z 21003KT 170V240 9999 -RA FEW048 SCT060 BKN070 09/05 Q1002 NOSIG=

  • Lille (LFQQ)

    Taf: TAF LFQQ 270500Z 2706/2812 32020G30KT 9999 OVC005 TEMPO 2706/2711 31025G40KT 3000 RA BKN007 BECMG 2711/2713 02015G25KT BECMG 2715/2717 02010KT BECMG 2719/2721 3000 BR OVC005 BECMG 2721/2724 32010KT TEMPO 2800/2812 1300 DZ BR OVC002=

    Metar: METAR LFQQ 270630Z AUTO 33021G33KT 4600 DZ BR OVC007 14/13 Q0999 TEMPO RA=

  • Paris/Charles de Gaulle (LFPG)

    Taf: TAF LFPG 270500Z 2706/2812 32015G25KT 9999 BKN012 TX14/2716Z TN10/2706Z TEMPO 2706/2712 4000 RA BKN008 BKN010 PROB40 TEMPO 2707/2712 32020G35KT PROB30 TEMPO 2708/2710 32025G40KT TEMPO 2713/2722 BKN005 BECMG 2722/2724 32010KT TEMPO 2722/2809 2000 DZ BKN004 PROB40 TEMPO 2723/2803 OVC001=

    Metar: METAR LFPG 270630Z 31019KT 5000 -RA OVC013 10/09 Q1003 NOSIG=

  • Paderborn/Lippstadt (EDLP)

    Taf: TAF EDLP 270500Z 2706/2806 14009KT 9999 BKN020 BECMG 2714/2716 14003KT PROB30 TEMPO 2720/2806 4000 RA BKN012 BECMG 2802/2805 21006KT=

    Metar: METAR EDLP 270650Z 09004KT 9999 BKN015 08/05 Q1000=

  • Paris/Le Bourget (LFPB)

    Taf: TAF LFPB 270500Z 2706/2806 32015G25KT 9999 BKN014 TEMPO 2706/2712 4000 RA BKN009 PROB40 TEMPO 2707/2712 32020G35KT PROB30 TEMPO 2708/2710 32025G40KT TEMPO 2713/2722 BKN007 BECMG 2722/2724 32010KT TEMPO 2722/2806 2000 DZ BKN005=

    Metar: METAR LFPB 270630Z AUTO 29013G23KT 260V330 7000 -RA BKN014/// OVC020/// ///TCU 10/09 Q1003 TEMPO 32025G40KT 4000 RA BKN009=

  • Rotterdam (EHRD)

    Taf: TAF EHRD 270442Z 2706/2812 01018KT 9999 BKN008 PROB30 TEMPO 2706/2708 6000 -DZRA BKN012 BECMG 2707/2709 04013KT BKN022 BECMG 2712/2715 03007KT BECMG 2715/2718 VRB03KT BECMG 2800/2803 7000 SCT006 BKN010 TEMPO 2802/2812 3500 -DZRA SCT004 BKN006 PROB30 TEMPO 2803/2809 2000 BR -DZ SCT003 BKN004=

    Metar: METAR EHRD 270655Z AUTO 01015KT 330V050 9999 SCT012 BKN016 OVC019 17/15 Q0999 TEMPO BKN012=

  • Zürich/Kloten (LSZH)

    Taf: TAF LSZH 270525Z 2706/2812 23007KT 9999 FEW025 SCT050 BKN075 TX12/2713Z TN08/2706Z TN04/2805Z BECMG 2715/2717 VRB03KT BECMG 2802/2805 4000 MIFG PROB40 2803/2808 1500 BCFG PROB30 2803/2807 0800 FG VV003 BECMG 2806/2809 CAVOK=

    Metar: METAR LSZH 270650Z 22008KT 190V250 9999 FEW023 BKN063 08/04 Q1003 NOSIG=

  • Oostende/Intl (EBOS)

    Taf: TAF COR EBOS 270520Z 2706/2812 35030G42KT 8000 SCT012 BKN018 TEMPO 2706/2712 4000 RADZ BR BKN006 BECMG 2709/2711 36022G32KT PROB40 TEMPO 2712/2718 BKN008 BECMG 2713/2715 02013KT PROB40 TEMPO 2718/2809 3200 RA RADZ SCT005 BKN009 BECMG 2809/2811 32017G30KT=

    Metar: METAR EBOS 270650Z 36025G36KT 3500 -RADZ BR FEW005 BKN007 BKN015 14/13 Q1001 TEMPO 2500 RADZ=

  • Paris/Orly (LFPO)

    Taf: TAF LFPO 270500Z 2706/2812 30015G30KT 8000 SCT012 BKN020 TEMPO 2706/2709 4000 RA BKN012 TEMPO 2709/2812 BKN008 BECMG 2714/2718 33010KT PROB40 TEMPO 2800/2808 2500 -RADZ BKN004 PROB30 TEMPO 2800/2808 1200 RADZ BKN002=

    Metar: METAR LFPO 270630Z 31016KT 280V340 4500 -RA BKN011 BKN018 10/09 Q1004 TEMPO 4000 RA=

  • Beauvais (LFOB)

    Taf: TAF LFOB 270500Z 2706/2806 31025G35KT 9999 BKN025 TEMPO 2706/2714 3000 RA BKN007 BECMG 2714/2716 33010KT BKN010 TEMPO 2717/2806 3000 DZ BR OVC002=

    Metar: METAR LFOB 270630Z AUTO 32022KT 9999 OVC013 11/09 Q1003 TEMPO 3000 RA BKN007 BECMG 31025G35KT=

  • Münster/Intl (EDDG)

    Taf: TAF EDDG 270500Z 2706/2806 08006KT 9999 SCT010 BKN025 BECMG 2715/2718 VRB03KT TEMPO 2721/2806 4000 RA BECMG 2800/2803 OVC012 PROB30 TEMPO 2802/2806 BKN006=

    Metar: METAR EDDG 270650Z 06005KT 360V130 9999 FEW006 BKN011 09/08 Q1000 BECMG SCT010=

  • Illesheim (ETIK)

    Taf: nil

    Metar: METAR ETIK 270656Z AUTO 19008KT 9999 BKN039 09/08 A2958 RMK AO2 SLP022 T00890081 $=

  • Duebendorf (LSMD)

    Taf: TAF LSMD 270500Z NIL=

    Metar: METAR LSMD 270650Z AUTO 25007KT 190V330 9999NDV FEW067 SCT080 09/02 Q1003 RMK=

  • Villacoublay (LFPV)

    Taf: TAF AMD LFPV 270536Z 2705/2803 31015G25KT 6000 -RA OVC009 TEMPO 2709/2713 31015G35KT 3000 RADZ BECMG 2715/2717 OVC003=

    Metar: METAR LFPV 270630Z AUTO 30018G28KT 8000 RA BKN009/// OVC014/// ///TCU 10/08 Q1004 BECMG NSW OVC009=

  • Payerne (LSMP)

    Taf: TAF LSMP 270525Z 2706/2812 23010KT 9999 FEW030 BKN045 TEMPO 2706/2715 RA BECMG 2720/2723 VRB03KT PROB30 TEMPO 2800/2812 BKN014=

    Metar: METAR LSMP 270650Z AUTO 24013KT 210V270 9999NDV -RA OVC036 08/04 Q1004 RMK=

  • Amsterdam/Schipol (EHAM)

    Taf: TAF EHAM 270442Z 2706/2812 01018KT 9999 SCT008 BKN012 PROB30 TEMPO 2706/2708 6000 -DZRA BKN008 BECMG 2707/2709 04013KT BKN022 BECMG 2712/2715 03007KT BECMG 2715/2718 VRB03KT BECMG 2800/2803 7000 SCT006 BKN010 TEMPO 2802/2812 3500 -DZRA SCT004 BKN006 PROB30 TEMPO 2803/2809 2000 BR -DZ SCT003 BKN004=

    Metar: METAR EHAM 270655Z 05014KT 010V080 9999 FEW012 SCT022 BKN032 16/13 Q0999 NOSIG=

  • Emmen (LSME)

    Taf: TAF LSME 270500Z NIL=

    Metar: METAR LSME 270650Z AUTO 00000KT 9999NDV SCT072 07/04 Q1004 RMK=

  • Friedrichshafen (EDNY)

    Taf: TAF EDNY 270500Z 2706/2806 24008KT CAVOK BECMG 2718/2720 VRB03KT=

    Metar: METAR EDNY 270650Z AUTO 22009KT 9999 // FEW080/// 09/03 Q1003=

  • Alpnach (LSMA)

    Taf: TAF LSMA 270500Z NIL=

    Metar: METAR LSMA 270650Z AUTO 20001KT 9999NDV SCT084 06/04 Q1004 RMK=

  • Meiringen (LSMM)

    Taf: TAF LSMM 270500Z NIL=

    Metar: METAR LSMM 270650Z AUTO 00000KT 9999NDV BKN088 05/04 Q1004 RMK=

  • Nürnberg (EDDN)

    Taf: TAF EDDN 270500Z 2706/2806 19007KT 9999 BKN025 BECMG 2716/2718 VRB03KT=

    Metar: METAR EDDN 270650Z 18007KT 160V220 9999 FEW013 BKN028 09/06 Q1002 NOSIG=

  • Rouen (LFOP)

    Taf: TAF AMD LFOP 270645Z 2706/2806 32013G23KT 9999 BKN017 TEMPO 2706/2715 32023G33KT 3000 RA BKN013 SCT015TCU BECMG 2715/2718 BKN011 BECMG 2719/2721 33010KT BKN005=

    Metar: METAR LFOP 270630Z AUTO 31017KT 5000 -RA BR OVC011/// ///TCU 09/09 Q1007 TEMPO 32023G33KT RA BKN013=

  • Evreux (LFOE)

    Taf: TAF LFOE 270200Z 2703/2803 31015G25KT 7000 RA BKN015 BECMG 2709/2711 BKN010 BECMG 2720/2722 31015KT TEMPO 2723/2803 BKN005=

    Metar: METAR LFOE 270630Z AUTO 30017KT 9999 DZ BKN016/// OVC022/// ///TCU 10/08 Q1007 BECMG 31015G25KT RA BKN015=

  • Erfurt/Bindersleben (EDDE)

    Taf: TAF EDDE 270500Z 2706/2806 21006KT 9999 BKN035=

    Metar: METAR EDDE 270650Z VRB02KT 9999 SCT023 07/05 Q1001 NOSIG=